createdAt,value
2019-03-16T00:00:13.423Z,6.51
2019-03-16T00:01:13.414Z,6.30
2019-03-16T00:02:13.409Z,6.38
2019-03-16T00:03:13.391Z,6.46
2019-03-16T00:04:13.380Z,6.50
2019-03-16T00:05:13.370Z,6.40
2019-03-16T00:06:13.359Z,6.35
2019-03-16T00:07:13.372Z,6.33
2019-03-16T00:08:13.337Z,6.35
2019-03-16T00:09:13.329Z,6.35
2019-03-16T00:10:13.316Z,6.48
2019-03-16T00:11:13.305Z,6.36
2019-03-16T00:12:13.299Z,6.36
2019-03-16T00:13:15.975Z,6.38
2019-03-16T00:14:13.282Z,6.33
2019-03-16T00:15:13.262Z,6.33
2019-03-16T00:16:13.250Z,6.33
2019-03-16T00:17:23.330Z,6.38
2019-03-16T00:18:14.236Z,6.38
2019-03-16T00:19:13.217Z,6.32
2019-03-16T00:20:13.208Z,6.18
2019-03-16T00:21:13.196Z,6.35
2019-03-16T00:22:13.192Z,6.35
2019-03-16T00:23:13.184Z,6.40
2019-03-16T00:24:13.170Z,6.38
2019-03-16T00:25:13.153Z,6.32
2019-03-16T00:26:13.145Z,6.29
2019-03-16T00:27:13.130Z,6.30
2019-03-16T00:28:13.131Z,6.38
2019-03-16T00:29:13.109Z,6.29
2019-03-16T00:30:13.099Z,6.29
2019-03-16T00:31:13.087Z,6.33
2019-03-16T00:32:13.899Z,6.36
2019-03-16T00:33:13.079Z,6.35
2019-03-16T00:34:13.054Z,6.30
2019-03-16T00:35:13.045Z,6.18
2019-03-16T00:36:13.032Z,6.33
2019-03-16T00:37:13.022Z,6.30
2019-03-16T00:38:13.021Z,6.28
2019-03-16T00:39:13.001Z,6.32
2019-03-16T00:40:12.992Z,6.32
2019-03-16T00:41:12.984Z,6.29
2019-03-16T00:42:12.967Z,6.29
2019-03-16T00:43:12.964Z,6.32
2019-03-16T00:44:12.947Z,6.32
2019-03-16T00:45:12.939Z,6.36
2019-03-16T00:46:12.924Z,6.38
2019-03-16T00:47:12.913Z,6.30
2019-03-16T00:48:12.910Z,6.35
2019-03-16T00:49:12.891Z,6.38
2019-03-16T00:50:12.880Z,6.33
2019-03-16T00:51:12.869Z,6.28
2019-03-16T00:52:12.859Z,6.29
2019-03-16T00:53:12.863Z,6.26
2019-03-16T00:54:12.840Z,6.25
2019-03-16T00:55:12.827Z,6.16
2019-03-16T00:56:12.817Z,6.11
2019-03-16T00:57:12.805Z,6.14
2019-03-16T00:58:12.806Z,6.11
2019-03-16T00:59:12.784Z,6.11
2019-03-16T01:00:12.781Z,6.10
2019-03-16T01:01:12.761Z,6.00
2019-03-16T01:02:26.168Z,6.04
2019-03-16T01:03:13.771Z,6.07
2019-03-16T01:04:12.732Z,6.04
2019-03-16T01:05:12.729Z,6.06
2019-03-16T01:06:12.708Z,6.04
2019-03-16T01:07:12.697Z,5.98
2019-03-16T01:08:12.688Z,5.96
2019-03-16T01:09:12.685Z,5.96
2019-03-16T01:10:12.669Z,6.00
2019-03-16T01:11:12.656Z,5.93
2019-03-16T01:12:12.643Z,5.88
2019-03-16T01:13:12.636Z,5.89
2019-03-16T01:14:12.631Z,5.83
2019-03-16T01:15:12.616Z,5.89
2019-03-16T01:16:12.600Z,5.96
2019-03-16T01:17:12.589Z,5.95
2019-03-16T01:18:12.579Z,6.00
2019-03-16T01:19:12.577Z,5.95
2019-03-16T01:20:12.560Z,5.98
2019-03-16T01:21:12.551Z,5.96
2019-03-16T01:22:12.536Z,6.00
2019-03-16T01:23:12.525Z,6.04
2019-03-16T01:24:12.522Z,5.96
2019-03-16T01:25:12.506Z,6.03
2019-03-16T01:26:12.492Z,5.95
2019-03-16T01:27:12.484Z,5.98
2019-03-16T01:28:12.473Z,5.95
2019-03-16T01:29:12.470Z,6.00
2019-03-16T01:30:12.449Z,5.93
2019-03-16T01:31:12.439Z,5.96
2019-03-16T01:32:12.429Z,6.06
2019-03-16T01:33:12.419Z,5.88
2019-03-16T01:34:12.416Z,6.00
2019-03-16T01:35:12.397Z,5.96
2019-03-16T01:36:12.388Z,5.96
2019-03-16T01:37:12.375Z,6.00
2019-03-16T01:38:12.370Z,5.86
2019-03-16T01:39:12.362Z,6.00
2019-03-16T01:40:12.342Z,5.92
2019-03-16T01:41:12.333Z,5.96
2019-03-16T01:42:12.321Z,5.91
2019-03-16T01:43:12.321Z,5.91
2019-03-16T01:44:12.308Z,5.82
2019-03-16T01:45:12.288Z,5.86
2019-03-16T01:46:12.279Z,5.86
2019-03-16T01:47:12.269Z,5.81
2019-03-16T01:48:12.255Z,5.85
2019-03-16T01:49:12.276Z,5.88
2019-03-16T01:50:12.244Z,5.71
2019-03-16T01:51:12.224Z,5.92
2019-03-16T01:52:12.215Z,5.81
2019-03-16T01:53:12.202Z,5.83
2019-03-16T01:54:12.194Z,5.82
2019-03-16T01:55:12.192Z,5.75
2019-03-16T01:56:12.171Z,5.75
2019-03-16T01:57:12.160Z,5.81
2019-03-16T01:58:12.161Z,5.75
2019-03-16T01:59:12.158Z,5.66
2019-03-16T02:00:12.141Z,5.74
2019-03-16T02:01:12.117Z,5.83
2019-03-16T02:02:12.110Z,5.77
2019-03-16T02:03:12.105Z,5.78
2019-03-16T02:04:12.085Z,5.77
2019-03-16T02:05:12.083Z,5.88
2019-03-16T02:06:12.064Z,5.82
2019-03-16T02:07:12.051Z,5.85
2019-03-16T02:08:12.053Z,5.86
2019-03-16T02:09:12.030Z,5.86
2019-03-16T02:10:12.031Z,5.91
2019-03-16T02:11:12.010Z,5.85
2019-03-16T02:12:12.001Z,5.82
2019-03-16T02:13:11.991Z,5.82
2019-03-16T02:14:11.979Z,5.85
2019-03-16T02:15:11.975Z,5.93
2019-03-16T02:16:11.957Z,5.85
2019-03-16T02:17:11.942Z,6.00
2019-03-16T02:18:11.934Z,5.95
2019-03-16T02:19:11.923Z,5.96
2019-03-16T02:20:11.923Z,6.00
2019-03-16T02:21:11.900Z,6.07
2019-03-16T02:22:11.887Z,6.03
2019-03-16T02:23:11.878Z,6.04
2019-03-16T02:24:11.865Z,6.10
2019-03-16T02:25:11.896Z,6.01
2019-03-16T02:26:11.844Z,6.16
2019-03-16T02:27:11.833Z,6.13
2019-03-16T02:28:11.823Z,6.10
2019-03-16T02:29:11.812Z,6.06
2019-03-16T02:30:11.805Z,6.25
2019-03-16T02:31:11.798Z,6.29
2019-03-16T02:32:11.780Z,6.13
2019-03-16T02:33:13.636Z,6.26
2019-03-16T02:34:11.758Z,6.14
2019-03-16T02:35:11.750Z,6.10
2019-03-16T02:36:11.745Z,6.14
2019-03-16T02:37:11.734Z,6.16
2019-03-16T02:38:11.714Z,6.14
2019-03-16T02:39:11.703Z,6.10
2019-03-16T02:40:11.693Z,6.16
2019-03-16T02:41:11.691Z,6.11
2019-03-16T02:42:11.670Z,6.13
2019-03-16T02:43:11.661Z,6.14
2019-03-16T02:44:11.712Z,6.13
2019-03-16T02:45:11.638Z,6.09
2019-03-16T02:46:11.637Z,6.06
2019-03-16T02:47:11.618Z,5.96
2019-03-16T02:48:11.607Z,5.98
2019-03-16T02:49:11.593Z,5.85
2019-03-16T02:50:11.583Z,5.88
2019-03-16T02:51:11.580Z,5.88
2019-03-16T02:52:11.561Z,5.78
2019-03-16T02:53:11.561Z,5.85
2019-03-16T02:54:11.544Z,5.82
2019-03-16T02:55:11.559Z,5.85
2019-03-16T02:56:11.685Z,5.89
2019-03-16T02:57:11.512Z,5.85
2019-03-16T02:58:11.506Z,5.83
2019-03-16T02:59:11.487Z,5.83
2019-03-16T03:00:11.478Z,5.88
2019-03-16T03:01:11.474Z,5.85
2019-03-16T03:02:11.452Z,5.86
2019-03-16T03:03:28.092Z,5.89
2019-03-16T03:04:12.433Z,5.77
2019-03-16T03:05:11.422Z,5.73
2019-03-16T03:06:11.420Z,5.75
2019-03-16T03:07:11.398Z,5.78
2019-03-16T03:08:11.388Z,5.82
2019-03-16T03:09:11.384Z,5.78
2019-03-16T03:10:11.366Z,5.75
2019-03-16T03:11:11.366Z,5.73
2019-03-16T03:12:11.343Z,5.70
2019-03-16T03:13:13.601Z,5.73
2019-03-16T03:14:11.323Z,5.73
2019-03-16T03:15:11.311Z,5.70
2019-03-16T03:16:11.312Z,5.77
2019-03-16T03:17:11.290Z,5.66
2019-03-16T03:18:11.278Z,5.63
2019-03-16T03:19:11.268Z,5.73
2019-03-16T03:20:11.272Z,5.74
2019-03-16T03:21:11.366Z,5.63
2019-03-16T03:22:11.277Z,5.67
2019-03-16T03:23:11.229Z,5.70
2019-03-16T03:24:11.216Z,5.68
2019-03-16T03:25:11.202Z,5.68
2019-03-16T03:26:11.200Z,5.70
2019-03-16T03:27:11.183Z,5.70
2019-03-16T03:28:11.175Z,5.66
2019-03-16T03:29:11.160Z,5.73
2019-03-16T03:30:11.150Z,5.68
2019-03-16T03:31:11.172Z,5.66
2019-03-16T03:32:11.215Z,5.73
2019-03-16T03:33:11.116Z,5.56
2019-03-16T03:34:11.106Z,5.57
2019-03-16T03:35:11.103Z,5.56
2019-03-16T03:36:11.083Z,5.56
2019-03-16T03:37:11.082Z,5.55
2019-03-16T03:38:11.064Z,5.50
2019-03-16T03:39:11.051Z,5.52
2019-03-16T03:40:11.074Z,5.56
2019-03-16T03:41:11.030Z,5.64
2019-03-16T03:42:11.027Z,5.57
2019-03-16T03:43:11.006Z,5.59
2019-03-16T03:44:10.998Z,5.56
2019-03-16T03:45:11.013Z,5.57
2019-03-16T03:46:10.978Z,5.59
2019-03-16T03:47:10.974Z,5.63
2019-03-16T03:48:10.953Z,5.63
2019-03-16T03:49:10.943Z,5.57
2019-03-16T03:50:10.937Z,5.59
2019-03-16T03:51:10.924Z,5.64
2019-03-16T03:52:10.919Z,5.55
2019-03-16T03:53:10.905Z,5.57
2019-03-16T03:54:10.889Z,5.59
2019-03-16T03:55:10.879Z,5.59
2019-03-16T03:56:10.868Z,5.50
2019-03-16T03:57:10.864Z,5.49
2019-03-16T03:58:10.845Z,5.40
2019-03-16T03:59:10.836Z,5.46
2019-03-16T04:00:10.822Z,5.43
2019-03-16T04:01:10.812Z,5.41
2019-03-16T04:02:10.810Z,5.38
2019-03-16T04:03:10.790Z,5.40
2019-03-16T04:04:15.760Z,5.43
2019-03-16T04:05:11.769Z,5.49
2019-03-16T04:06:10.757Z,5.50
2019-03-16T04:07:10.762Z,5.50
2019-03-16T04:08:10.744Z,5.57
2019-03-16T04:09:10.732Z,5.52
2019-03-16T04:10:10.717Z,5.63
2019-03-16T04:11:10.708Z,5.63
2019-03-16T04:12:10.707Z,5.56
2019-03-16T04:13:10.683Z,5.53
2019-03-16T04:14:10.671Z,5.63
2019-03-16T04:15:10.686Z,5.56
2019-03-16T04:16:10.653Z,5.59
2019-03-16T04:17:10.647Z,5.60
2019-03-16T04:18:10.657Z,5.63
2019-03-16T04:19:10.620Z,5.55
2019-03-16T04:20:10.621Z,5.56
2019-03-16T04:21:10.595Z,5.52
2019-03-16T04:22:10.596Z,5.48
2019-03-16T04:23:10.574Z,5.50
2019-03-16T04:24:10.568Z,5.55
2019-03-16T04:25:10.554Z,5.59
2019-03-16T04:26:10.543Z,5.57
2019-03-16T04:27:16.432Z,5.63
2019-03-16T04:28:11.522Z,5.52
2019-03-16T04:29:10.510Z,5.57
2019-03-16T04:30:10.502Z,5.55
2019-03-16T04:31:10.489Z,5.66
2019-03-16T04:32:10.491Z,5.66
2019-03-16T04:33:10.467Z,5.60
2019-03-16T04:34:10.459Z,5.60
2019-03-16T04:35:10.444Z,5.64
2019-03-16T04:36:10.445Z,5.66
2019-03-16T04:37:10.437Z,5.63
2019-03-16T04:38:10.412Z,5.59
2019-03-16T04:39:10.402Z,5.60
2019-03-16T04:40:10.391Z,5.63
2019-03-16T04:41:10.379Z,5.64
2019-03-16T04:42:10.376Z,5.71
2019-03-16T04:43:10.359Z,5.66
2019-03-16T04:44:10.350Z,5.70
2019-03-16T04:45:10.340Z,5.74
2019-03-16T04:46:10.326Z,5.81
2019-03-16T04:47:10.324Z,5.75
2019-03-16T04:48:10.304Z,5.83
2019-03-16T04:49:10.294Z,5.83
2019-03-16T04:50:10.377Z,5.83
2019-03-16T04:51:10.271Z,5.75
2019-03-16T04:52:10.260Z,5.74
2019-03-16T04:53:10.257Z,5.78
2019-03-16T04:54:10.240Z,5.74
2019-03-16T04:55:10.231Z,5.67
2019-03-16T04:56:10.217Z,5.75
2019-03-16T04:57:10.205Z,5.73
2019-03-16T04:58:10.204Z,5.64
2019-03-16T04:59:10.187Z,5.67
2019-03-16T05:00:10.175Z,5.68
2019-03-16T05:01:10.165Z,5.59
2019-03-16T05:02:10.152Z,5.66
2019-03-16T05:03:10.150Z,5.53
2019-03-16T05:04:10.130Z,5.64
2019-03-16T05:05:10.123Z,5.60
2019-03-16T05:06:10.109Z,5.59
2019-03-16T05:07:10.100Z,5.57
2019-03-16T05:08:10.094Z,5.59
2019-03-16T05:09:10.075Z,5.56
2019-03-16T05:10:10.063Z,5.60
2019-03-16T05:11:10.056Z,5.64
2019-03-16T05:12:10.044Z,5.59
2019-03-16T05:13:10.040Z,5.55
2019-03-16T05:14:10.021Z,5.63
2019-03-16T05:15:10.012Z,5.64
2019-03-16T05:16:10.004Z,5.55
2019-03-16T05:17:09.988Z,5.66
2019-03-16T05:18:09.986Z,5.52
2019-03-16T05:19:09.965Z,5.63
2019-03-16T05:20:09.957Z,5.60
2019-03-16T05:21:09.943Z,5.52
2019-03-16T05:22:09.933Z,5.63
2019-03-16T05:23:09.932Z,5.63
2019-03-16T05:24:09.913Z,5.57
2019-03-16T05:25:09.905Z,5.57
2019-03-16T05:26:09.891Z,5.57
2019-03-16T05:27:09.879Z,5.43
2019-03-16T05:28:09.878Z,5.50
2019-03-16T05:29:09.859Z,5.49
2019-03-16T05:30:09.850Z,5.41
2019-03-16T05:31:09.838Z,5.46
2019-03-16T05:32:09.943Z,5.48
2019-03-16T05:33:09.824Z,5.49
2019-03-16T05:34:09.805Z,5.41
2019-03-16T05:35:09.797Z,5.50
2019-03-16T05:36:09.798Z,5.40
2019-03-16T05:37:09.771Z,5.49
2019-03-16T05:38:09.769Z,5.41
2019-03-16T05:39:09.751Z,5.52
2019-03-16T05:40:09.748Z,5.53
2019-03-16T05:41:09.727Z,5.59
2019-03-16T05:42:09.718Z,5.57
2019-03-16T05:43:09.715Z,5.60
2019-03-16T05:44:09.696Z,5.55
2019-03-16T05:45:09.686Z,5.59
2019-03-16T05:46:09.674Z,5.63
2019-03-16T05:47:09.665Z,5.57
2019-03-16T05:48:09.664Z,5.59
2019-03-16T05:49:09.641Z,5.68
2019-03-16T05:50:09.630Z,5.66
2019-03-16T05:51:09.623Z,5.78
2019-03-16T05:52:09.609Z,5.83
2019-03-16T05:53:09.606Z,5.85
2019-03-16T05:54:09.590Z,5.88
2019-03-16T05:55:09.576Z,5.85
2019-03-16T05:56:09.570Z,5.88
2019-03-16T05:57:09.559Z,5.85
2019-03-16T05:58:09.553Z,5.88
2019-03-16T05:59:09.535Z,5.82
2019-03-16T06:00:10.024Z,5.88
2019-03-16T06:01:09.514Z,5.83
2019-03-16T06:02:09.509Z,6.00
2019-03-16T06:03:09.505Z,5.91
2019-03-16T06:04:09.482Z,5.95
2019-03-16T06:05:11.245Z,6.03
2019-03-16T06:06:09.460Z,6.13
2019-03-16T06:07:09.449Z,6.16
2019-03-16T06:08:09.471Z,6.22
2019-03-16T06:09:09.430Z,6.33
2019-03-16T06:10:09.421Z,6.36
2019-03-16T06:11:09.426Z,6.46
2019-03-16T06:12:09.395Z,6.47
2019-03-16T06:13:09.385Z,6.50
2019-03-16T06:14:09.382Z,6.41
2019-03-16T06:15:09.363Z,6.54
2019-03-16T06:16:09.352Z,6.50
2019-03-16T06:17:09.341Z,6.61
2019-03-16T06:18:09.330Z,6.63
2019-03-16T06:19:09.329Z,6.68
2019-03-16T06:20:09.309Z,6.80
2019-03-16T06:21:09.298Z,6.84
2019-03-16T06:22:09.285Z,6.83
2019-03-16T06:23:09.282Z,6.81
2019-03-16T06:24:09.274Z,6.95
2019-03-16T06:25:09.255Z,6.97
2019-03-16T06:26:09.244Z,6.84
2019-03-16T06:27:09.231Z,6.81
2019-03-16T06:28:09.226Z,6.73
2019-03-16T06:29:09.218Z,6.66
2019-03-16T06:30:09.202Z,6.65
2019-03-16T06:31:09.189Z,6.62
2019-03-16T06:32:09.181Z,6.56
2019-03-16T06:33:09.170Z,6.53
2019-03-16T06:34:09.220Z,6.44
2019-03-16T06:35:09.143Z,6.51
2019-03-16T06:36:09.175Z,6.50
2019-03-16T06:37:09.123Z,6.51
2019-03-16T06:38:09.110Z,6.51
2019-03-16T06:39:09.111Z,6.44
2019-03-16T06:40:09.090Z,6.46
2019-03-16T06:41:09.079Z,6.48
2019-03-16T06:42:09.067Z,6.50
2019-03-16T06:43:09.056Z,6.56
2019-03-16T06:44:09.055Z,6.48
2019-03-16T06:45:09.038Z,6.48
2019-03-16T06:46:09.025Z,6.63
2019-03-16T06:47:09.025Z,6.84
2019-03-16T06:48:09.002Z,6.99
2019-03-16T06:49:09.000Z,7.29
2019-03-16T06:50:08.981Z,7.02
2019-03-16T06:51:08.970Z,6.87
2019-03-16T06:52:08.957Z,6.77
2019-03-16T06:53:08.949Z,6.87
2019-03-16T06:54:08.946Z,6.63
2019-03-16T06:55:08.925Z,6.69
2019-03-16T06:56:08.916Z,6.73
2019-03-16T06:57:08.994Z,6.72
2019-03-16T06:58:08.891Z,6.76
2019-03-16T06:59:08.890Z,6.71
2019-03-16T07:00:08.870Z,6.72
2019-03-16T07:01:08.860Z,6.71
2019-03-16T07:02:08.850Z,6.61
2019-03-16T07:03:08.837Z,6.73
2019-03-16T07:04:08.835Z,6.79
2019-03-16T07:05:08.816Z,6.83
2019-03-16T07:06:08.804Z,7.02
2019-03-16T07:07:08.797Z,7.35
2019-03-16T07:08:08.784Z,7.67
2019-03-16T07:09:08.789Z,8.30
2019-03-16T07:10:08.764Z,8.60
2019-03-16T07:11:08.751Z,8.68
2019-03-16T07:12:08.746Z,8.76
2019-03-16T07:13:08.729Z,8.87
2019-03-16T07:14:08.728Z,8.96
2019-03-16T07:15:08.711Z,8.68
2019-03-16T07:16:08.698Z,8.65
2019-03-16T07:17:08.690Z,8.50
2019-03-16T07:18:08.677Z,8.55
2019-03-16T07:19:08.676Z,8.51
2019-03-16T07:20:08.663Z,8.57
2019-03-16T07:21:08.644Z,8.25
2019-03-16T07:22:08.637Z,8.10
2019-03-16T07:23:08.668Z,8.02
2019-03-16T07:24:08.624Z,7.96
2019-03-16T07:25:08.605Z,7.84
2019-03-16T07:26:14.626Z,7.93
2019-03-16T07:27:09.579Z,7.84
2019-03-16T07:28:08.569Z,7.67
2019-03-16T07:29:08.567Z,7.69
2019-03-16T07:30:08.551Z,7.63
2019-03-16T07:31:08.536Z,7.62
2019-03-16T07:32:08.527Z,7.69
2019-03-16T07:33:08.519Z,7.79
2019-03-16T07:34:08.513Z,7.82
2019-03-16T07:35:08.494Z,7.79
2019-03-16T07:36:08.483Z,7.81
2019-03-16T07:37:08.474Z,7.78
2019-03-16T07:38:08.517Z,7.84
2019-03-16T07:39:08.464Z,7.81
2019-03-16T07:40:08.439Z,7.90
2019-03-16T07:41:08.429Z,8.03
2019-03-16T07:42:08.420Z,8.10
2019-03-16T07:43:08.408Z,8.15
2019-03-16T07:44:08.404Z,8.22
2019-03-16T07:45:09.037Z,8.37
2019-03-16T07:46:08.391Z,8.36
2019-03-16T07:47:08.363Z,8.26
2019-03-16T07:48:08.358Z,8.36
2019-03-16T07:49:08.376Z,8.39
2019-03-16T07:50:08.333Z,8.25
2019-03-16T07:51:08.324Z,8.18
2019-03-16T07:52:08.311Z,8.17
2019-03-16T07:53:08.304Z,8.00
2019-03-16T07:54:08.293Z,7.97
2019-03-16T07:55:08.292Z,7.94
2019-03-16T07:56:08.275Z,7.96
2019-03-16T07:57:08.266Z,7.89
2019-03-16T07:58:08.248Z,7.81
2019-03-16T07:59:08.242Z,7.78
2019-03-16T08:00:08.333Z,7.79
2019-03-16T08:01:08.219Z,7.92
2019-03-16T08:02:08.206Z,7.84
2019-03-16T08:03:08.193Z,7.85
2019-03-16T08:04:08.182Z,7.94
2019-03-16T08:05:18.240Z,8.07
2019-03-16T08:06:09.160Z,8.08
2019-03-16T08:07:08.154Z,8.02
2019-03-16T08:08:08.139Z,8.10
2019-03-16T08:09:08.203Z,8.07
2019-03-16T08:10:08.130Z,8.07
2019-03-16T08:11:08.113Z,8.08
2019-03-16T08:12:08.096Z,8.20
2019-03-16T08:13:08.090Z,8.21
2019-03-16T08:14:08.076Z,8.17
2019-03-16T08:15:08.072Z,8.17
2019-03-16T08:16:08.054Z,8.25
2019-03-16T08:17:08.043Z,8.26
2019-03-16T08:18:08.146Z,8.47
2019-03-16T08:19:08.022Z,8.40
2019-03-16T08:20:08.019Z,8.45
2019-03-16T08:21:08.000Z,8.50
2019-03-16T08:22:07.989Z,8.45
2019-03-16T08:23:07.979Z,8.48
2019-03-16T08:24:07.974Z,8.53
2019-03-16T08:25:07.964Z,8.51
2019-03-16T08:26:07.946Z,8.37
2019-03-16T08:27:07.939Z,8.26
2019-03-16T08:28:07.927Z,8.40
2019-03-16T08:29:07.913Z,8.48
2019-03-16T08:30:07.912Z,8.45
2019-03-16T08:31:07.893Z,8.36
2019-03-16T08:32:07.880Z,8.29
2019-03-16T08:33:07.874Z,8.33
2019-03-16T08:34:07.859Z,8.22
2019-03-16T08:35:07.857Z,8.28
2019-03-16T08:36:07.838Z,8.25
2019-03-16T08:37:07.828Z,8.30
2019-03-16T08:38:07.815Z,8.26
2019-03-16T08:39:07.804Z,8.28
2019-03-16T08:40:07.806Z,8.28
2019-03-16T08:41:07.788Z,8.29
2019-03-16T08:42:07.774Z,8.26
2019-03-16T08:43:07.764Z,8.26
2019-03-16T08:44:07.752Z,8.29
2019-03-16T08:45:07.751Z,8.30
2019-03-16T08:46:07.732Z,8.35
2019-03-16T08:47:07.722Z,8.35
2019-03-16T08:48:07.709Z,8.40
2019-03-16T08:49:07.697Z,8.39
2019-03-16T08:50:07.697Z,8.47
2019-03-16T08:51:07.676Z,8.45
2019-03-16T08:52:07.667Z,8.45
2019-03-16T08:53:07.659Z,8.45
2019-03-16T08:54:07.644Z,8.57
2019-03-16T08:55:07.641Z,8.57
2019-03-16T08:56:07.634Z,8.58
2019-03-16T08:57:07.617Z,8.71
2019-03-16T08:58:07.600Z,8.73
2019-03-16T08:59:07.588Z,8.68
2019-03-16T09:00:07.589Z,8.68
2019-03-16T09:01:07.567Z,8.71
2019-03-16T09:02:07.558Z,8.76
2019-03-16T09:03:07.547Z,8.99
2019-03-16T09:04:07.536Z,9.04
2019-03-16T09:05:07.538Z,9.02
2019-03-16T09:06:07.514Z,9.06
2019-03-16T09:07:07.502Z,8.91
2019-03-16T09:08:07.493Z,8.93
2019-03-16T09:09:07.480Z,8.93
2019-03-16T09:10:07.478Z,8.96
2019-03-16T09:11:07.459Z,8.86
2019-03-16T09:12:07.448Z,8.99
2019-03-16T09:13:07.438Z,9.05
2019-03-16T09:14:07.427Z,9.05
2019-03-16T09:15:07.425Z,9.02
2019-03-16T09:16:07.409Z,9.12
2019-03-16T09:17:09.104Z,9.04
2019-03-16T09:18:07.389Z,9.05
2019-03-16T09:19:07.375Z,9.09
2019-03-16T09:20:07.372Z,9.02
2019-03-16T09:21:07.361Z,9.13
2019-03-16T09:22:07.342Z,9.23
2019-03-16T09:23:07.330Z,9.28
2019-03-16T09:24:07.320Z,9.35
2019-03-16T09:25:07.316Z,9.43
2019-03-16T09:26:07.301Z,9.38
2019-03-16T09:27:07.288Z,9.28
2019-03-16T09:28:18.232Z,9.27
2019-03-16T09:29:14.813Z,9.25
2019-03-16T09:30:08.266Z,9.21
2019-03-16T09:31:07.246Z,9.20
2019-03-16T09:32:07.234Z,9.20
2019-03-16T09:33:07.235Z,9.16
2019-03-16T09:34:07.213Z,9.21
2019-03-16T09:35:07.210Z,9.23
2019-03-16T09:36:07.193Z,9.28
2019-03-16T09:37:07.180Z,9.21
2019-03-16T09:38:07.169Z,9.20
2019-03-16T09:39:07.161Z,9.15
2019-03-16T09:40:07.157Z,9.09
2019-03-16T09:41:07.139Z,9.09
2019-03-16T09:42:07.125Z,9.06
2019-03-16T09:43:07.117Z,9.06
2019-03-16T09:44:07.164Z,9.05
2019-03-16T09:45:07.103Z,9.09
2019-03-16T09:46:07.087Z,9.02
2019-03-16T09:47:07.075Z,8.99
2019-03-16T09:48:07.066Z,9.04
2019-03-16T09:49:07.057Z,9.09
2019-03-16T09:50:07.474Z,9.10
2019-03-16T09:51:07.037Z,9.20
2019-03-16T09:52:07.021Z,9.10
2019-03-16T09:53:07.009Z,9.09
2019-03-16T09:54:06.998Z,9.10
2019-03-16T09:55:07.001Z,9.01
2019-03-16T09:56:06.980Z,9.04
2019-03-16T09:57:06.965Z,9.05
2019-03-16T09:58:06.955Z,9.04
2019-03-16T09:59:06.944Z,9.09
2019-03-16T10:00:06.943Z,9.24
2019-03-16T10:01:06.928Z,9.20
2019-03-16T10:02:06.914Z,9.20
2019-03-16T10:03:06.902Z,9.28
2019-03-16T10:04:06.891Z,9.20
2019-03-16T10:05:06.880Z,9.27
2019-03-16T10:06:06.882Z,9.31
2019-03-16T10:07:06.859Z,9.27
2019-03-16T10:08:06.848Z,9.23
2019-03-16T10:09:06.839Z,9.27
2019-03-16T10:10:06.826Z,9.25
2019-03-16T10:11:06.823Z,9.25
2019-03-16T10:12:06.804Z,9.38
2019-03-16T10:13:06.794Z,9.43
2019-03-16T10:14:06.789Z,9.56
2019-03-16T10:15:06.772Z,9.66
2019-03-16T10:16:06.774Z,9.70
2019-03-16T10:17:06.752Z,9.76
2019-03-16T10:18:06.741Z,9.75
2019-03-16T10:19:06.730Z,9.76
2019-03-16T10:20:06.722Z,9.73
2019-03-16T10:21:06.720Z,9.61
2019-03-16T10:22:06.701Z,9.67
2019-03-16T10:23:06.687Z,9.57
2019-03-16T10:24:06.676Z,9.64
2019-03-16T10:25:06.668Z,9.60
2019-03-16T10:26:06.665Z,9.63
2019-03-16T10:27:06.647Z,9.58
2019-03-16T10:28:06.633Z,9.73
2019-03-16T10:29:06.629Z,9.83
2019-03-16T10:30:06.614Z,9.96
2019-03-16T10:31:06.612Z,9.97
2019-03-16T10:32:06.595Z,9.91
2019-03-16T10:33:06.578Z,9.88
2019-03-16T10:34:06.571Z,9.91
2019-03-16T10:35:06.556Z,9.97
2019-03-16T10:36:06.556Z,9.86
2019-03-16T10:37:06.536Z,9.83
2019-03-16T10:38:06.526Z,9.85
2019-03-16T10:39:06.533Z,9.81
2019-03-16T10:40:06.504Z,9.93
2019-03-16T10:41:06.507Z,9.93
2019-03-16T10:42:06.481Z,9.76
2019-03-16T10:43:06.483Z,9.81
2019-03-16T10:44:06.459Z,9.82
2019-03-16T10:45:06.448Z,9.81
2019-03-16T10:46:08.488Z,9.96
2019-03-16T10:47:06.426Z,9.96
2019-03-16T10:48:06.416Z,9.88
2019-03-16T10:49:06.407Z,9.73
2019-03-16T10:50:06.395Z,9.91
2019-03-16T10:51:06.386Z,9.91
2019-03-16T10:52:06.382Z,10.01
2019-03-16T10:53:06.363Z,10.10
2019-03-16T10:54:06.355Z,10.03
2019-03-16T10:55:06.340Z,9.96
2019-03-16T10:56:06.330Z,9.71
2019-03-16T10:57:06.329Z,9.67
2019-03-16T10:58:06.309Z,9.64
2019-03-16T10:59:06.303Z,9.66
2019-03-16T11:00:06.288Z,9.64
2019-03-16T11:01:06.277Z,9.58
2019-03-16T11:02:06.276Z,9.67
2019-03-16T11:03:06.257Z,9.70
2019-03-16T11:04:06.248Z,9.53
2019-03-16T11:05:06.235Z,9.71
2019-03-16T11:06:06.226Z,9.71
2019-03-16T11:07:06.229Z,9.81
2019-03-16T11:08:06.272Z,9.73
2019-03-16T11:09:06.193Z,9.83
2019-03-16T11:10:06.182Z,9.94
2019-03-16T11:11:06.169Z,9.99
2019-03-16T11:12:06.172Z,9.71
2019-03-16T11:13:06.152Z,9.71
2019-03-16T11:14:06.138Z,9.58
2019-03-16T11:15:06.127Z,9.64
2019-03-16T11:16:06.116Z,9.61
2019-03-16T11:17:06.119Z,9.63
2019-03-16T11:18:06.106Z,9.52
2019-03-16T11:19:06.085Z,9.53
2019-03-16T11:20:06.079Z,9.50
2019-03-16T11:21:06.066Z,9.45
2019-03-16T11:22:06.064Z,9.53
2019-03-16T11:23:06.043Z,9.48
2019-03-16T11:24:06.034Z,9.43
2019-03-16T11:25:06.022Z,9.31
2019-03-16T11:26:06.011Z,9.24
2019-03-16T11:27:06.017Z,9.27
2019-03-16T11:28:05.990Z,9.28
2019-03-16T11:29:09.306Z,9.23
2019-03-16T11:30:05.972Z,9.27
2019-03-16T11:31:05.960Z,9.27
2019-03-16T11:32:05.946Z,9.21
2019-03-16T11:33:05.945Z,9.27
2019-03-16T11:34:05.930Z,9.30
2019-03-16T11:35:05.914Z,9.25
2019-03-16T11:36:05.917Z,9.30
2019-03-16T11:37:05.893Z,9.27
2019-03-16T11:38:05.889Z,9.28
2019-03-16T11:39:05.873Z,9.28
2019-03-16T11:40:05.863Z,9.21
2019-03-16T11:41:05.849Z,9.24
2019-03-16T11:42:05.842Z,9.21
2019-03-16T11:43:05.837Z,9.25
2019-03-16T11:44:05.818Z,9.21
2019-03-16T11:45:05.806Z,9.24
2019-03-16T11:46:05.797Z,9.20
2019-03-16T11:47:05.786Z,9.28
2019-03-16T11:48:05.783Z,9.27
2019-03-16T11:49:05.764Z,9.32
2019-03-16T11:50:05.753Z,9.28
2019-03-16T11:51:05.743Z,9.24
2019-03-16T11:52:05.732Z,9.04
2019-03-16T11:53:05.734Z,9.06
2019-03-16T11:54:05.727Z,9.02
2019-03-16T11:55:05.712Z,8.96
2019-03-16T11:56:17.465Z,8.87
2019-03-16T11:57:06.677Z,8.91
2019-03-16T11:58:05.674Z,8.90
2019-03-16T11:59:05.656Z,8.75
2019-03-16T12:00:05.646Z,8.78
2019-03-16T12:01:05.636Z,8.66
2019-03-16T12:02:05.844Z,8.62
2019-03-16T12:03:05.633Z,8.50
2019-03-16T12:04:05.605Z,8.53
2019-03-16T12:05:05.592Z,8.60
2019-03-16T12:06:05.581Z,8.57
2019-03-16T12:07:05.569Z,8.54
2019-03-16T12:08:05.568Z,8.42
2019-03-16T12:09:05.549Z,8.48
2019-03-16T12:10:05.537Z,8.63
2019-03-16T12:11:05.526Z,8.53
2019-03-16T12:12:05.522Z,8.60
2019-03-16T12:13:16.677Z,8.60
2019-03-16T12:14:06.502Z,8.62
2019-03-16T12:15:05.485Z,8.65
2019-03-16T12:16:05.491Z,8.69
2019-03-16T12:17:05.461Z,8.71
2019-03-16T12:18:05.451Z,8.71
2019-03-16T12:19:05.450Z,8.65
2019-03-16T12:20:05.429Z,8.58
2019-03-16T12:21:05.418Z,8.68
2019-03-16T12:22:05.411Z,8.55
2019-03-16T12:23:05.399Z,8.48
2019-03-16T12:24:05.396Z,8.50
2019-03-16T12:25:05.375Z,8.37
2019-03-16T12:26:05.376Z,8.44
2019-03-16T12:27:05.361Z,8.40
2019-03-16T12:28:05.342Z,8.48
2019-03-16T12:29:05.341Z,8.44
2019-03-16T12:30:05.322Z,8.53
2019-03-16T12:31:05.309Z,8.57
2019-03-16T12:32:05.298Z,8.54
2019-03-16T12:33:05.290Z,8.47
2019-03-16T12:34:05.290Z,8.48
2019-03-16T12:35:05.334Z,8.44
2019-03-16T12:36:05.258Z,8.47
2019-03-16T12:37:05.245Z,8.40
2019-03-16T12:38:05.234Z,8.42
2019-03-16T12:39:05.234Z,8.48
2019-03-16T12:40:05.217Z,8.50
2019-03-16T12:41:05.204Z,8.35
2019-03-16T12:42:05.191Z,8.40
2019-03-16T12:43:05.180Z,8.39
2019-03-16T12:44:05.181Z,8.26
2019-03-16T12:45:05.162Z,8.37
2019-03-16T12:46:05.146Z,8.26
2019-03-16T12:47:05.135Z,8.20
2019-03-16T12:48:05.125Z,8.15
2019-03-16T12:49:05.124Z,8.17
2019-03-16T12:50:05.105Z,8.08
2019-03-16T12:51:05.098Z,8.10
2019-03-16T12:52:05.082Z,8.00
2019-03-16T12:53:05.071Z,7.89
2019-03-16T12:54:05.071Z,7.92
2019-03-16T12:55:05.053Z,7.84
2019-03-16T12:56:05.040Z,7.79
2019-03-16T12:57:05.028Z,7.75
2019-03-16T12:58:05.017Z,7.63
2019-03-16T12:59:10.509Z,7.66
2019-03-16T13:00:05.994Z,7.63
2019-03-16T13:01:04.993Z,7.71
2019-03-16T13:02:04.972Z,7.67
2019-03-16T13:03:04.962Z,7.74
2019-03-16T13:04:04.960Z,7.58
2019-03-16T13:05:04.963Z,7.45
2019-03-16T13:06:04.931Z,7.37
2019-03-16T13:07:04.919Z,7.26
2019-03-16T13:08:04.907Z,7.23
2019-03-16T13:09:04.910Z,7.16
2019-03-16T13:10:04.887Z,7.16
2019-03-16T13:11:04.878Z,7.04
2019-03-16T13:12:04.864Z,7.01
2019-03-16T13:13:04.856Z,6.99
2019-03-16T13:14:04.851Z,7.12
2019-03-16T13:15:04.832Z,6.98
2019-03-16T13:16:04.819Z,6.99
2019-03-16T13:17:04.810Z,7.01
2019-03-16T13:18:04.803Z,7.01